createdAt,value
2023-02-17T00:00:00.425Z,22.58
2023-02-17T00:02:28.909Z,22.98
2023-02-17T00:04:57.145Z,22.92
2023-02-17T00:07:25.527Z,22.65
2023-02-17T00:09:53.703Z,23.13
2023-02-17T00:12:22.111Z,23.20
2023-02-17T00:14:51.602Z,23.80
2023-02-17T00:17:20.081Z,24.33
2023-02-17T00:19:48.310Z,22.75
2023-02-17T00:22:16.728Z,23.17
2023-02-17T00:24:45.123Z,22.60
2023-02-17T00:27:13.464Z,22.02
2023-02-17T00:29:41.679Z,21.80
2023-02-17T00:32:11.511Z,22.70
2023-02-17T00:34:40.074Z,22.70
2023-02-17T00:37:08.646Z,21.70
2023-02-17T00:39:36.924Z,21.17
2023-02-17T00:42:05.628Z,21.15
2023-02-17T00:44:33.936Z,19.85
2023-02-17T00:47:02.255Z,21.77
2023-02-17T00:49:31.751Z,20.58
2023-02-17T00:52:01.973Z,21.00
2023-02-17T00:54:30.534Z,22.02
2023-02-17T00:56:58.794Z,21.42
2023-02-17T00:59:27.299Z,23.33
2023-02-17T01:01:55.662Z,23.10
2023-02-17T01:04:24.119Z,21.50
2023-02-17T01:06:53.652Z,22.27
2023-02-17T01:09:22.000Z,20.63
2023-02-17T01:11:50.453Z,21.38
2023-02-17T01:14:18.847Z,21.67
2023-02-17T01:16:49.468Z,21.10
2023-02-17T01:19:20.346Z,20.77
2023-02-17T01:21:49.820Z,20.65
2023-02-17T01:24:19.453Z,19.75
2023-02-17T01:26:47.783Z,18.45
2023-02-17T01:29:16.120Z,19.08
2023-02-17T01:31:45.690Z,19.05
2023-02-17T01:34:14.535Z,18.80
2023-02-17T01:36:42.765Z,19.30
2023-02-17T01:39:14.819Z,19.30
2023-02-17T01:41:45.659Z,19.42
2023-02-17T01:44:17.423Z,18.50
2023-02-17T01:46:47.575Z,18.63
2023-02-17T01:49:33.981Z,17.77
2023-02-17T01:52:09.377Z,17.80
2023-02-17T01:54:42.567Z,18.52
2023-02-17T01:57:14.093Z,16.92
2023-02-17T01:59:42.834Z,16.80
2023-02-17T02:02:11.372Z,16.58
2023-02-17T02:04:43.219Z,13.35
2023-02-17T02:07:15.144Z,14.38
2023-02-17T02:09:47.460Z,13.68
2023-02-17T02:12:20.957Z,15.40
2023-02-17T02:14:50.644Z,16.67
2023-02-17T02:17:28.071Z,14.70
2023-02-17T02:20:24.628Z,13.52
2023-02-17T02:23:17.003Z,10.25
2023-02-17T02:26:35.715Z,10.43
2023-02-17T02:29:27.066Z,8.68
2023-02-17T02:32:06.663Z,8.70
2023-02-17T02:34:42.221Z,8.75
2023-02-17T02:37:16.051Z,9.50
2023-02-17T02:39:49.996Z,11.48
2023-02-17T02:42:21.829Z,8.43
2023-02-17T02:44:51.119Z,8.63
2023-02-17T02:47:48.155Z,9.85
2023-02-17T02:50:27.704Z,8.00
2023-02-17T02:53:12.664Z,6.30
2023-02-17T02:55:53.679Z,6.95
2023-02-17T02:58:28.894Z,6.85
2023-02-17T03:01:04.906Z,6.70
2023-02-17T03:03:41.206Z,6.70
2023-02-17T03:06:18.452Z,6.00
2023-02-17T03:08:52.197Z,6.13
2023-02-17T03:11:32.287Z,6.20
2023-02-17T03:14:03.559Z,5.90
2023-02-17T03:16:32.244Z,9.65
2023-02-17T03:19:00.706Z,10.65
2023-02-17T03:21:36.614Z,11.10
2023-02-17T03:24:05.465Z,10.73
2023-02-17T03:26:33.728Z,11.27
2023-02-17T03:29:02.342Z,10.35
2023-02-17T03:31:31.283Z,10.95
2023-02-17T03:33:59.742Z,10.15
2023-02-17T03:36:29.849Z,10.73
2023-02-17T03:38:59.872Z,11.15
2023-02-17T03:41:28.335Z,12.32
2023-02-17T03:43:56.790Z,11.93
2023-02-17T03:46:25.045Z,12.57
2023-02-17T03:48:53.328Z,13.10
2023-02-17T03:51:23.373Z,12.40
2023-02-17T03:53:52.854Z,12.23
2023-02-17T03:56:22.492Z,12.48
2023-02-17T03:58:50.976Z,12.57
2023-02-17T04:01:19.290Z,11.57
2023-02-17T04:03:47.728Z,12.63
2023-02-17T04:06:16.286Z,12.40
2023-02-17T04:08:44.595Z,12.38
2023-02-17T04:11:12.846Z,13.32
2023-02-17T04:13:42.429Z,12.57
2023-02-17T04:16:11.481Z,12.60
2023-02-17T04:18:40.192Z,13.05
2023-02-17T04:21:08.774Z,11.93
2023-02-17T04:23:38.185Z,12.30
2023-02-17T04:26:08.001Z,12.70
2023-02-17T04:28:38.825Z,12.05
2023-02-17T04:31:08.903Z,11.90
2023-02-17T04:33:37.884Z,12.15
2023-02-17T04:36:07.682Z,12.20
2023-02-17T04:38:36.450Z,11.70
2023-02-17T04:41:06.136Z,12.75
2023-02-17T04:43:34.412Z,12.60
2023-02-17T04:46:02.705Z,12.13
2023-02-17T04:48:32.439Z,11.40
2023-02-17T04:51:00.922Z,11.32
2023-02-17T04:53:29.208Z,12.52
2023-02-17T04:55:57.473Z,12.95
2023-02-17T04:58:25.723Z,12.90
2023-02-17T05:00:53.958Z,12.88
2023-02-17T05:03:22.763Z,12.50
2023-02-17T05:05:52.624Z,14.15
2023-02-17T05:08:21.101Z,13.27
2023-02-17T05:10:52.005Z,12.73
2023-02-17T05:13:20.421Z,14.07
2023-02-17T05:15:49.158Z,13.43
2023-02-17T05:18:17.658Z,12.63
2023-02-17T05:20:46.563Z,13.30
2023-02-17T05:23:16.619Z,13.20
2023-02-17T05:25:45.410Z,13.80
2023-02-17T05:28:14.116Z,14.20
2023-02-17T05:30:42.624Z,14.20
2023-02-17T05:33:11.156Z,13.13
2023-02-17T05:35:39.946Z,13.65
2023-02-17T05:38:08.893Z,14.63
2023-02-17T05:40:43.158Z,15.23
2023-02-17T05:43:15.624Z,14.60
2023-02-17T05:45:47.485Z,14.45
2023-02-17T05:48:16.759Z,13.70
2023-02-17T05:50:45.586Z,14.15
2023-02-17T05:53:14.371Z,14.05
2023-02-17T05:55:44.186Z,14.15
2023-02-17T05:58:13.153Z,14.65
2023-02-17T06:00:41.884Z,14.25
2023-02-17T06:03:12.861Z,14.27
2023-02-17T06:05:42.336Z,15.43
2023-02-17T06:08:11.060Z,13.60
2023-02-17T06:10:40.136Z,14.15
2023-02-17T06:13:11.937Z,14.77
2023-02-17T06:15:48.806Z,13.55
2023-02-17T06:18:17.398Z,13.90
2023-02-17T06:20:46.123Z,14.10
2023-02-17T06:23:22.464Z,15.02
2023-02-17T06:25:51.585Z,14.30
2023-02-17T06:28:22.456Z,14.27
2023-02-17T06:30:51.923Z,15.63
2023-02-17T06:33:23.350Z,15.18
2023-02-17T06:35:53.370Z,13.60
2023-02-17T06:38:35.554Z,13.63
2023-02-17T06:41:08.662Z,14.32
2023-02-17T06:43:39.093Z,13.63
2023-02-17T06:46:08.745Z,13.80
2023-02-17T06:49:10.349Z,13.90
2023-02-17T06:51:50.900Z,13.52
2023-02-17T06:57:48.360Z,13.98
2023-02-17T07:00:32.721Z,14.00
2023-02-17T07:03:18.844Z,13.95
2023-02-17T07:05:48.119Z,13.30
2023-02-17T07:08:29.999Z,13.70
2023-02-17T07:10:59.286Z,13.38
2023-02-17T08:17:06.624Z,4.93
2023-02-17T08:51:35.058Z,4.38
2023-02-17T08:54:17.348Z,4.00
2023-02-17T09:00:47.704Z,3.78
2023-02-17T09:03:31.010Z,3.70
2023-02-17T09:06:16.100Z,3.63
2023-02-17T09:13:26.992Z,3.85
2023-02-17T09:15:56.868Z,3.70
2023-02-17T09:18:48.954Z,3.88
2023-02-17T09:21:48.850Z,3.70
2023-02-17T09:24:50.008Z,3.20
2023-02-17T09:27:41.125Z,2.75
2023-02-17T09:34:23.275Z,2.50
2023-02-17T09:40:40.404Z,2.30
2023-02-17T09:43:48.413Z,2.17
2023-02-17T09:46:38.216Z,2.60
2023-02-17T10:02:03.481Z,2.40
2023-02-17T10:05:24.667Z,2.60
2023-02-17T10:15:21.004Z,2.33
2023-02-17T10:22:40.114Z,1.90
2023-02-17T10:30:11.860Z,2.25
2023-02-17T10:34:08.027Z,2.60
2023-02-17T10:40:21.267Z,2.17
2023-02-17T10:52:01.692Z,1.98
2023-02-17T10:54:40.800Z,1.80
2023-02-17T11:02:50.466Z,1.92
2023-02-17T11:09:11.486Z,1.80
2023-02-17T11:12:54.925Z,1.83
2023-02-17T11:15:38.430Z,1.73
2023-02-17T11:18:12.745Z,1.67
2023-02-17T11:20:41.174Z,1.70
2023-02-17T11:23:23.758Z,1.48
2023-02-17T11:26:02.481Z,1.67
2023-02-17T11:28:31.081Z,1.70
2023-02-17T11:31:04.871Z,2.33
2023-02-17T11:33:36.312Z,1.90
2023-02-17T11:36:07.374Z,1.80
2023-02-17T11:38:44.614Z,1.60
2023-02-17T11:41:13.025Z,1.70
2023-02-17T11:43:51.763Z,1.20
2023-02-17T11:46:29.557Z,1.40
2023-02-17T11:49:20.600Z,1.20
2023-02-17T11:51:59.507Z,1.30
2023-02-17T11:54:37.070Z,1.35
2023-02-17T11:57:23.514Z,1.17
2023-02-17T12:00:05.603Z,1.10
2023-02-17T12:03:06.816Z,1.25
2023-02-17T12:05:50.621Z,1.05
2023-02-17T12:08:24.805Z,1.30
2023-02-17T12:11:07.063Z,1.17
2023-02-17T12:13:46.618Z,1.30
2023-02-17T12:16:28.545Z,1.30
2023-02-17T12:19:05.689Z,1.10
2023-02-17T12:21:56.766Z,1.20
2023-02-17T12:24:40.075Z,1.33
2023-02-17T12:27:23.233Z,1.13
2023-02-17T12:30:13.517Z,1.05
2023-02-17T12:32:56.127Z,1.23
2023-02-17T12:35:32.526Z,0.82
2023-02-17T12:38:05.214Z,0.93
2023-02-17T12:40:39.491Z,1.10
2023-02-17T12:43:17.453Z,1.02
2023-02-17T12:45:49.213Z,1.00
2023-02-17T12:48:24.270Z,0.82
2023-02-17T12:51:00.621Z,1.13
2023-02-17T12:53:41.922Z,0.85
2023-02-17T12:56:39.554Z,1.00
2023-02-17T12:59:15.915Z,0.98
2023-02-17T13:01:50.961Z,1.10
2023-02-17T13:04:20.932Z,0.90
2023-02-17T13:06:56.205Z,0.88
2023-02-17T13:09:31.379Z,1.00
2023-02-17T13:12:18.852Z,0.80
2023-02-17T13:14:49.346Z,0.80
2023-02-17T13:17:27.984Z,0.65
2023-02-17T13:20:45.580Z,0.60
2023-02-17T13:23:29.169Z,0.63
2023-02-17T13:26:17.797Z,0.60
2023-02-17T13:28:46.538Z,0.65
2023-02-17T13:31:17.923Z,0.63
2023-02-17T13:33:49.816Z,0.50
2023-02-17T13:36:34.710Z,0.60
2023-02-17T13:39:08.478Z,0.60
2023-02-17T13:41:47.536Z,0.60
2023-02-17T13:44:28.133Z,0.60
2023-02-17T13:46:59.699Z,0.60
2023-02-17T13:49:32.875Z,0.60
2023-02-17T13:52:17.292Z,0.43
2023-02-17T13:54:55.904Z,0.50
2023-02-17T13:57:27.029Z,0.60
2023-02-17T14:00:06.779Z,0.35
2023-02-17T14:02:46.808Z,0.52
2023-02-17T14:05:20.474Z,0.40
2023-02-17T14:07:50.023Z,0.50
2023-02-17T14:10:22.868Z,0.50
2023-02-17T14:12:51.749Z,0.40
2023-02-17T14:15:22.325Z,0.50
2023-02-17T14:17:50.723Z,0.50
2023-02-17T14:20:28.621Z,0.35
2023-02-17T14:23:04.797Z,0.40
2023-02-17T14:25:37.406Z,0.47
2023-02-17T14:28:18.204Z,0.40
2023-02-17T14:30:46.961Z,0.35
2023-02-17T14:33:22.696Z,0.30
2023-02-17T14:35:52.902Z,0.50
2023-02-17T14:38:24.083Z,0.30
2023-02-17T14:40:55.773Z,0.50
2023-02-17T14:43:24.619Z,0.30
2023-02-17T14:45:52.932Z,0.30
2023-02-17T14:48:21.393Z,0.40
2023-02-17T14:50:50.537Z,0.90
2023-02-17T14:53:24.869Z,0.50
2023-02-17T14:56:00.159Z,0.50
2023-02-17T14:58:30.004Z,0.50
2023-02-17T15:00:58.498Z,0.47
2023-02-17T15:03:27.260Z,0.30
2023-02-17T15:05:56.230Z,0.40
2023-02-17T15:08:31.198Z,0.40
2023-02-17T15:11:02.439Z,0.50
2023-02-17T15:13:31.693Z,0.40
2023-02-17T15:16:00.127Z,0.30
2023-02-17T15:18:28.461Z,0.40
2023-02-17T15:20:57.827Z,0.90
2023-02-17T15:23:26.501Z,0.98
2023-02-17T15:25:56.566Z,0.85
2023-02-17T15:28:26.369Z,0.80
2023-02-17T15:30:56.787Z,0.47
2023-02-17T15:33:25.582Z,0.60
2023-02-17T15:35:55.510Z,0.40
2023-02-17T15:38:26.519Z,0.57
2023-02-17T15:40:58.365Z,0.57
2023-02-17T15:46:11.668Z,0.40
2023-02-17T15:48:40.380Z,0.40
2023-02-17T15:51:10.845Z,0.60
2023-02-17T15:53:39.191Z,0.25
2023-02-17T15:56:13.788Z,0.28
2023-02-17T15:58:43.789Z,0.50
2023-02-17T16:01:19.678Z,0.40
2023-02-17T16:03:48.298Z,0.45
2023-02-17T16:06:16.589Z,0.50
2023-02-17T16:08:44.917Z,0.40
2023-02-17T16:11:14.851Z,0.70
2023-02-17T16:13:46.100Z,0.50
2023-02-17T16:16:19.229Z,0.85
2023-02-17T16:18:48.597Z,0.60
2023-02-17T16:21:17.862Z,0.70
2023-02-17T16:23:46.422Z,0.60
2023-02-17T16:26:18.568Z,0.50
2023-02-17T16:28:48.610Z,0.50
2023-02-17T16:31:16.923Z,0.60
2023-02-17T16:33:45.292Z,0.70
2023-02-17T16:36:16.484Z,0.70
2023-02-17T16:38:46.881Z,0.60
2023-02-17T16:41:16.109Z,0.55
2023-02-17T16:43:44.803Z,0.75
2023-02-17T16:46:23.799Z,0.70
2023-02-17T16:48:52.115Z,0.90
2023-02-17T16:51:20.317Z,0.80
2023-02-17T16:53:48.692Z,1.20
2023-02-17T16:56:22.065Z,1.10
2023-02-17T16:58:50.635Z,0.93
2023-02-17T17:01:20.379Z,1.10
2023-02-17T17:03:48.740Z,1.00
2023-02-17T17:06:21.339Z,0.80
2023-02-17T17:08:50.126Z,0.60
2023-02-17T17:11:21.570Z,0.80
2023-02-17T17:13:50.417Z,0.80
2023-02-17T17:16:24.034Z,0.80
2023-02-17T17:18:52.707Z,0.98
2023-02-17T17:21:22.024Z,0.90
2023-02-17T17:23:50.805Z,0.85
2023-02-17T17:26:25.570Z,0.70
2023-02-17T17:28:54.315Z,0.90
2023-02-17T17:31:24.573Z,1.02
2023-02-17T17:33:54.817Z,0.90
2023-02-17T17:36:26.226Z,1.23
2023-02-17T17:38:55.582Z,0.93
2023-02-17T17:41:25.387Z,1.30
2023-02-17T17:43:55.500Z,1.00
2023-02-17T17:46:28.251Z,1.20
2023-02-17T17:48:58.748Z,1.10
2023-02-17T17:51:28.604Z,0.90
2023-02-17T17:53:57.678Z,0.80
2023-02-17T17:56:28.795Z,1.08
2023-02-17T17:58:58.316Z,1.13
2023-02-17T18:01:29.002Z,1.30
2023-02-17T18:04:00.695Z,1.35
2023-02-17T18:06:34.446Z,1.38
2023-02-17T18:09:05.209Z,1.20
2023-02-17T18:11:34.450Z,1.20
2023-02-17T18:14:05.411Z,1.40
2023-02-17T18:16:36.248Z,1.20
2023-02-17T18:19:07.142Z,1.30
2023-02-17T18:21:36.603Z,1.42
2023-02-17T18:24:05.055Z,1.30
2023-02-17T18:26:33.501Z,1.25
2023-02-17T18:29:01.874Z,1.38
2023-02-17T18:31:30.426Z,1.10
2023-02-17T18:34:00.482Z,1.33
2023-02-17T18:36:28.831Z,1.50
2023-02-17T18:38:57.398Z,1.80
2023-02-17T18:41:28.571Z,1.88
2023-02-17T18:43:57.980Z,2.20
2023-02-17T18:46:27.083Z,2.30
2023-02-17T18:48:56.109Z,2.20
2023-02-17T18:51:27.626Z,2.17
2023-02-17T18:53:57.379Z,2.40
2023-02-17T18:56:29.031Z,2.80
2023-02-17T18:58:57.943Z,2.80
2023-02-17T19:01:28.904Z,2.40
2023-02-17T19:03:58.265Z,2.35
2023-02-17T19:06:29.559Z,2.20
2023-02-17T19:08:58.272Z,2.30
2023-02-17T19:11:27.213Z,2.55
2023-02-17T19:13:55.751Z,2.35
2023-02-17T19:16:28.123Z,2.35
2023-02-17T19:18:57.353Z,1.73
2023-02-17T19:21:27.816Z,1.70
2023-02-17T19:23:56.427Z,1.55
2023-02-17T19:26:24.816Z,1.80
2023-02-17T19:28:53.369Z,1.73
2023-02-17T19:31:22.521Z,1.70
2023-02-17T19:33:50.934Z,1.73
2023-02-17T19:36:21.854Z,1.42
2023-02-17T19:38:52.141Z,1.70
2023-02-17T19:41:21.494Z,1.27
2023-02-17T19:43:50.330Z,1.88
2023-02-17T19:46:22.640Z,1.55
2023-02-17T19:48:51.117Z,1.65
2023-02-17T19:51:19.421Z,1.52
2023-02-17T19:53:47.914Z,1.60
2023-02-17T19:56:19.475Z,1.70
2023-02-17T19:58:48.618Z,1.90
2023-02-17T20:01:20.286Z,2.17
2023-02-17T20:03:49.132Z,1.80
2023-02-17T20:06:21.344Z,1.85
2023-02-17T20:08:54.083Z,1.98
2023-02-17T20:11:24.345Z,1.90
2023-02-17T20:13:52.963Z,1.70
2023-02-17T20:16:22.096Z,2.03
2023-02-17T20:18:51.513Z,2.10
2023-02-17T20:21:22.216Z,2.05
2023-02-17T20:23:51.016Z,2.00
2023-02-17T20:26:21.818Z,2.53
2023-02-17T20:28:52.046Z,2.40
2023-02-17T20:31:21.126Z,2.40
2023-02-17T20:33:49.554Z,2.78
2023-02-17T20:36:18.396Z,2.55
2023-02-17T20:38:46.908Z,2.47
2023-02-17T20:41:18.072Z,2.60
2023-02-17T20:43:46.889Z,2.35
2023-02-17T20:46:21.718Z,3.28
2023-02-17T20:48:50.332Z,3.20
2023-02-17T20:51:18.759Z,2.70
2023-02-17T20:53:48.363Z,2.80
2023-02-17T20:56:19.108Z,2.92
2023-02-17T20:58:48.392Z,2.83
2023-02-17T21:01:18.147Z,2.30
2023-02-17T21:03:47.050Z,3.00
2023-02-17T21:06:22.305Z,2.63
2023-02-17T21:08:52.624Z,2.70
2023-02-17T21:11:21.318Z,2.85
2023-02-17T21:13:50.045Z,3.10
2023-02-17T21:16:22.145Z,2.88
2023-02-17T21:18:50.609Z,3.00
2023-02-17T21:21:19.001Z,3.03
2023-02-17T21:23:47.842Z,2.80
2023-02-17T21:26:18.194Z,2.58
2023-02-17T21:28:47.388Z,2.65
2023-02-17T21:31:16.359Z,2.70
2023-02-17T21:33:46.498Z,2.50
2023-02-17T21:36:17.284Z,3.05
2023-02-17T21:38:45.878Z,2.40
2023-02-17T21:41:17.750Z,2.20
2023-02-17T21:44:04.214Z,2.03
2023-02-17T21:46:32.845Z,2.05
2023-02-17T21:49:03.317Z,1.90
2023-02-17T21:51:31.858Z,2.08
2023-02-17T21:54:00.262Z,2.03
2023-02-17T21:56:29.307Z,1.92
2023-02-17T21:58:57.649Z,1.92
2023-02-17T22:01:27.839Z,1.90
2023-02-17T22:03:57.519Z,1.90
2023-02-17T22:06:29.053Z,2.08
2023-02-17T22:08:58.284Z,1.92
2023-02-17T22:11:28.712Z,2.15
2023-02-17T22:13:57.800Z,2.10
2023-02-17T22:16:27.204Z,2.30
2023-02-17T22:18:55.563Z,2.38
2023-02-17T22:21:23.864Z,2.00
2023-02-17T22:23:53.529Z,2.05
2023-02-17T22:26:23.674Z,2.25
2023-02-17T22:28:52.601Z,2.50
2023-02-17T22:31:22.364Z,2.55
2023-02-17T22:33:50.843Z,2.78
2023-02-17T22:36:22.112Z,2.38
2023-02-17T22:38:50.821Z,2.85
2023-02-17T22:41:22.432Z,2.70
2023-02-17T22:43:51.570Z,2.90
2023-02-17T22:46:21.860Z,3.10
2023-02-17T22:48:52.121Z,3.40
2023-02-17T22:51:22.920Z,3.17
2023-02-17T22:53:51.477Z,3.05
2023-02-17T22:56:21.641Z,3.17
2023-02-17T22:58:53.705Z,2.97
2023-02-17T23:01:25.296Z,2.72
2023-02-17T23:03:57.213Z,2.90
2023-02-17T23:06:29.409Z,3.30
2023-02-17T23:09:00.138Z,2.90
2023-02-17T23:11:51.266Z,2.80
2023-02-17T23:14:23.224Z,2.80
2023-02-17T23:16:52.215Z,2.67
2023-02-17T23:19:22.539Z,2.50
2023-02-17T23:21:53.391Z,2.17
2023-02-17T23:24:22.944Z,2.00
2023-02-17T23:26:53.690Z,2.05
2023-02-17T23:29:23.006Z,1.80
2023-02-17T23:31:51.391Z,1.30
2023-02-17T23:34:20.366Z,1.20
2023-02-17T23:36:48.903Z,1.10
2023-02-17T23:39:17.903Z,1.00
2023-02-17T23:41:46.509Z,0.80
2023-02-17T23:44:16.886Z,0.80
2023-02-17T23:46:46.715Z,0.90
2023-02-17T23:49:16.978Z,0.70
2023-02-17T23:51:46.749Z,0.70
2023-02-17T23:54:15.578Z,0.80
2023-02-17T23:56:44.461Z,0.50
2023-02-17T23:59:12.799Z,0.60
